createdAt,value
2022-07-29T00:02:02.504Z,100596.98
2022-07-29T00:04:36.151Z,100596.29
2022-07-29T00:07:09.163Z,100595.39
2022-07-29T00:09:51.892Z,100605.34
2022-07-29T00:12:27.106Z,100606.56
2022-07-29T00:15:00.851Z,100610.55
2022-07-29T00:17:35.275Z,100611.92
2022-07-29T00:20:09.651Z,100610.02
2022-07-29T00:22:43.069Z,100610.68
2022-07-29T00:25:16.426Z,100610.94
2022-07-29T00:27:49.017Z,100613.25
2022-07-29T00:30:21.631Z,100613.70
2022-07-29T00:32:53.862Z,100615.80
2022-07-29T00:35:44.168Z,100612.13
2022-07-29T00:38:18.343Z,100610.53
2022-07-29T00:40:50.788Z,100610.71
2022-07-29T00:43:22.946Z,100607.83
2022-07-29T00:45:55.299Z,100604.58
2022-07-29T00:48:27.543Z,100600.69
2022-07-29T00:51:02.023Z,100596.41
2022-07-29T00:53:35.014Z,100595.30
2022-07-29T00:56:07.880Z,100597.13
2022-07-29T00:58:41.996Z,100597.57
2022-07-29T01:01:14.710Z,100596.25
2022-07-29T01:03:47.003Z,100599.48
2022-07-29T01:06:20.655Z,100600.14
2022-07-29T01:08:53.908Z,100603.02
2022-07-29T01:11:26.897Z,100608.38
2022-07-29T01:13:59.784Z,100603.27
2022-07-29T01:16:39.581Z,100604.77
2022-07-29T01:19:25.576Z,100607.64
2022-07-29T01:22:08.071Z,100603.60
2022-07-29T01:25:00.263Z,100604.61
2022-07-29T01:27:47.604Z,100603.34
2022-07-29T01:30:18.156Z,100599.81
2022-07-29T01:32:57.040Z,100601.77
2022-07-29T01:35:33.409Z,100598.64
2022-07-29T01:38:14.895Z,100600.96
2022-07-29T01:40:54.133Z,100603.07
2022-07-29T01:43:38.581Z,100604.72
2022-07-29T01:46:15.910Z,100607.54
2022-07-29T01:48:55.412Z,100607.16
2022-07-29T01:51:32.676Z,100607.40
2022-07-29T01:54:09.027Z,100609.64
2022-07-29T01:56:49.415Z,100605.75
2022-07-29T01:59:22.899Z,100607.60
2022-07-29T02:01:59.710Z,100603.31
2022-07-29T02:04:31.823Z,100606.90
2022-07-29T02:07:07.630Z,100607.52
2022-07-29T02:09:42.040Z,100609.71
2022-07-29T02:12:16.102Z,100606.27
2022-07-29T02:14:51.497Z,100605.73
2022-07-29T02:17:27.092Z,100605.02
2022-07-29T02:20:02.253Z,100606.87
2022-07-29T02:22:37.833Z,100605.38
2022-07-29T02:25:14.089Z,100610.91
2022-07-29T02:27:48.018Z,100607.96
2022-07-29T02:30:22.217Z,100612.66
2022-07-29T02:32:56.024Z,100608.52
2022-07-29T02:35:29.403Z,100608.05
2022-07-29T02:38:24.972Z,100610.30
2022-07-29T02:40:58.706Z,100603.56
2022-07-29T02:43:33.016Z,100605.19
2022-07-29T02:46:12.674Z,100605.66
2022-07-29T02:49:06.631Z,100611.72
2022-07-29T02:51:47.267Z,100613.27
2022-07-29T02:54:26.467Z,100610.02
2022-07-29T02:57:01.193Z,100608.23
2022-07-29T02:59:36.997Z,100611.02
2022-07-29T03:02:12.061Z,100612.26
2022-07-29T03:04:46.205Z,100611.73
2022-07-29T03:07:21.617Z,100606.16
2022-07-29T03:09:54.902Z,100609.11
2022-07-29T03:12:27.945Z,100610.60
2022-07-29T03:15:01.294Z,100608.41
2022-07-29T03:17:35.146Z,100610.38
2022-07-29T03:20:09.672Z,100614.77
2022-07-29T03:22:47.904Z,100617.60
2022-07-29T03:25:21.723Z,100617.42
2022-07-29T03:27:54.052Z,100615.27
2022-07-29T03:30:26.839Z,100615.02
2022-07-29T03:33:00.029Z,100615.45
2022-07-29T03:35:32.848Z,100613.40
2022-07-29T03:38:05.717Z,100614.60
2022-07-29T03:40:44.351Z,100613.64
2022-07-29T03:43:19.346Z,100606.69
2022-07-29T03:45:55.287Z,100610.44
2022-07-29T03:48:30.376Z,100607.81
2022-07-29T03:51:03.019Z,100612.10
2022-07-29T03:53:36.495Z,100613.61
2022-07-29T03:56:11.288Z,100611.02
2022-07-29T03:58:44.320Z,100614.23
2022-07-29T04:01:19.150Z,100614.36
2022-07-29T04:03:52.373Z,100615.48
2022-07-29T04:06:27.084Z,100616.60
2022-07-29T04:08:59.349Z,100618.73
2022-07-29T04:11:32.342Z,100612.92
2022-07-29T04:14:04.472Z,100612.01
2022-07-29T04:16:36.794Z,100613.77
2022-07-29T04:19:08.847Z,100616.27
2022-07-29T04:21:42.982Z,100620.95
2022-07-29T04:24:16.193Z,100619.88
2022-07-29T04:26:49.241Z,100617.75
2022-07-29T04:29:21.772Z,100616.09
2022-07-29T04:31:53.895Z,100617.16
2022-07-29T04:34:28.306Z,100622.51
2022-07-29T04:37:00.816Z,100620.14
2022-07-29T04:39:33.048Z,100617.38
2022-07-29T04:42:05.523Z,100620.48
2022-07-29T04:44:41.544Z,100618.98
2022-07-29T04:47:15.342Z,100619.38
2022-07-29T04:49:47.464Z,100622.37
2022-07-29T04:52:19.779Z,100625.63
2022-07-29T04:54:52.166Z,100626.25
2022-07-29T04:57:24.686Z,100626.54
2022-07-29T04:59:56.861Z,100630.05
2022-07-29T05:02:29.488Z,100625.36
2022-07-29T05:05:01.822Z,100626.70
2022-07-29T05:07:34.998Z,100625.42
2022-07-29T05:10:08.290Z,100622.89
2022-07-29T05:12:40.649Z,100625.55
2022-07-29T05:15:13.922Z,100633.35
2022-07-29T05:17:46.665Z,100632.48
2022-07-29T05:20:19.612Z,100637.40
2022-07-29T05:22:52.119Z,100638.17
2022-07-29T05:25:24.397Z,100643.45
2022-07-29T05:28:16.697Z,100636.83
2022-07-29T05:30:49.388Z,100637.40
2022-07-29T05:33:34.737Z,100632.23
2022-07-29T05:36:09.216Z,100626.40
2022-07-29T05:38:41.853Z,100632.02
2022-07-29T05:41:14.399Z,100626.35
2022-07-29T05:43:46.584Z,100625.04
2022-07-29T05:46:18.833Z,100619.70
2022-07-29T05:48:51.244Z,100616.58
2022-07-29T05:51:23.854Z,100610.61
2022-07-29T05:53:56.083Z,100604.16
2022-07-29T05:56:28.769Z,100604.80
2022-07-29T05:59:01.043Z,100601.10
2022-07-29T06:01:34.513Z,100600.58
2022-07-29T06:04:09.042Z,100596.71
2022-07-29T06:06:41.640Z,100592.48
2022-07-29T06:09:14.412Z,100593.19
2022-07-29T06:11:47.143Z,100590.02
2022-07-29T06:14:19.780Z,100593.09
2022-07-29T06:16:52.308Z,100588.37
2022-07-29T06:19:24.769Z,100586.56
2022-07-29T06:21:57.095Z,100587.77
2022-07-29T06:24:29.450Z,100592.39
2022-07-29T06:27:02.024Z,100591.80
2022-07-29T06:29:34.436Z,100594.89
2022-07-29T06:32:07.950Z,100591.24
2022-07-29T06:34:40.335Z,100585.59
2022-07-29T06:37:15.721Z,100580.98
2022-07-29T06:39:48.918Z,100583.95
2022-07-29T06:42:21.159Z,100590.58
2022-07-29T06:44:53.476Z,100596.09
2022-07-29T06:47:25.881Z,100593.80
2022-07-29T06:49:58.425Z,100591.13
2022-07-29T06:52:30.907Z,100591.17
2022-07-29T06:55:03.945Z,100589.38
2022-07-29T06:57:38.612Z,100591.36
2022-07-29T07:00:13.154Z,100594.85
2022-07-29T07:02:45.476Z,100595.78
2022-07-29T07:05:20.321Z,100593.22
2022-07-29T07:07:52.576Z,100591.73
2022-07-29T07:10:25.157Z,100591.11
2022-07-29T07:12:57.422Z,100591.72
2022-07-29T07:15:38.793Z,100589.96
2022-07-29T07:18:12.149Z,100592.91
2022-07-29T07:20:44.940Z,100595.24
2022-07-29T07:23:17.853Z,100596.38
2022-07-29T07:25:50.825Z,100596.81
2022-07-29T07:28:24.526Z,100591.84
2022-07-29T07:30:57.748Z,100593.07
2022-07-29T07:33:30.088Z,100592.25
2022-07-29T07:36:03.109Z,100591.88
2022-07-29T07:38:35.422Z,100593.30
2022-07-29T07:41:07.890Z,100590.98
2022-07-29T07:43:40.366Z,100595.98
2022-07-29T07:46:12.934Z,100594.23
2022-07-29T07:48:45.882Z,100598.59
2022-07-29T07:51:18.764Z,100595.84
2022-07-29T07:53:51.438Z,100596.95
2022-07-29T07:56:24.085Z,100593.06
2022-07-29T07:58:56.337Z,100595.15
2022-07-29T08:01:29.174Z,100593.86
2022-07-29T08:04:26.648Z,100596.67
2022-07-29T08:07:01.835Z,100598.41
2022-07-29T08:09:34.038Z,100595.77
2022-07-29T08:12:08.173Z,100598.80
2022-07-29T08:14:40.205Z,100594.98
2022-07-29T08:17:12.894Z,100588.70
2022-07-29T08:19:45.309Z,100590.05
2022-07-29T08:22:17.947Z,100586.17
2022-07-29T08:24:55.690Z,100587.64
2022-07-29T08:27:43.576Z,100578.21
2022-07-29T08:30:16.841Z,100583.45
2022-07-29T08:32:54.571Z,100589.06
2022-07-29T08:35:32.114Z,100585.87
2022-07-29T08:38:07.502Z,100583.70
2022-07-29T08:40:39.635Z,100589.09
2022-07-29T08:43:13.131Z,100586.71
2022-07-29T08:45:49.139Z,100582.73
2022-07-29T08:48:23.669Z,100587.04
2022-07-29T08:50:58.170Z,100589.21
2022-07-29T08:53:33.051Z,100589.73
2022-07-29T08:56:05.899Z,100595.83
2022-07-29T08:58:39.244Z,100598.89
2022-07-29T09:01:14.227Z,100587.41
2022-07-29T09:03:48.610Z,100581.61
2022-07-29T09:06:23.482Z,100583.48
2022-07-29T09:08:56.310Z,100576.69
2022-07-29T09:11:29.429Z,100574.71
2022-07-29T09:14:01.954Z,100574.08
2022-07-29T09:19:36.105Z,100575.61
2022-07-29T09:22:08.098Z,100575.91
2022-07-29T09:24:45.303Z,100581.48
2022-07-29T09:27:27.010Z,100579.39
2022-07-29T09:30:03.825Z,100587.14
2022-07-29T09:32:55.866Z,100578.84
2022-07-29T09:35:30.153Z,100573.93
2022-07-29T09:38:14.048Z,100571.34
2022-07-29T09:41:06.305Z,100571.26
2022-07-29T09:43:38.838Z,100577.91
2022-07-29T09:46:17.910Z,100573.05
2022-07-29T09:49:10.014Z,100564.48
2022-07-29T09:51:42.958Z,100558.83
2022-07-29T09:54:28.819Z,100563.45
2022-07-29T09:57:01.607Z,100566.09
2022-07-29T09:59:34.244Z,100567.27
2022-07-29T10:02:20.284Z,100564.60
2022-07-29T10:04:56.391Z,100563.19
2022-07-29T10:07:31.646Z,100562.30
2022-07-29T10:10:03.902Z,100562.61
2022-07-29T10:12:50.514Z,100557.16
2022-07-29T10:15:22.573Z,100557.65
2022-07-29T10:17:56.178Z,100558.14
2022-07-29T10:20:30.292Z,100550.77
2022-07-29T10:23:02.972Z,100548.12
2022-07-29T10:25:35.489Z,100548.58
2022-07-29T10:28:12.172Z,100547.39
2022-07-29T10:30:51.555Z,100548.13
2022-07-29T10:33:43.456Z,100550.56
2022-07-29T10:36:35.210Z,100550.90
2022-07-29T10:39:17.377Z,100543.90
2022-07-29T10:42:14.090Z,100538.22
2022-07-29T10:44:50.422Z,100539.75
2022-07-29T10:47:26.789Z,100541.97
2022-07-29T10:50:01.802Z,100539.09
2022-07-29T10:52:58.726Z,100540.63
2022-07-29T10:55:43.047Z,100539.05
2022-07-29T10:58:20.631Z,100537.76
2022-07-29T11:00:54.881Z,100532.20
2022-07-29T11:03:53.674Z,100530.92
2022-07-29T11:06:28.209Z,100531.95
2022-07-29T11:15:18.890Z,100522.54
2022-07-29T11:18:08.332Z,100524.52
2022-07-29T11:20:49.805Z,100516.16
2022-07-29T11:23:33.888Z,100516.77
2022-07-29T11:26:24.908Z,100513.23
2022-07-29T11:29:04.922Z,100516.16
2022-07-29T11:31:39.169Z,100513.02
2022-07-29T11:34:23.220Z,100516.34
2022-07-29T11:37:19.958Z,100508.90
2022-07-29T11:40:23.154Z,100511.10
2022-07-29T11:42:56.072Z,100510.39
2022-07-29T11:45:48.687Z,100508.08
2022-07-29T11:48:28.820Z,100507.09
2022-07-29T11:51:16.049Z,100507.14
2022-07-29T11:53:52.784Z,100508.36
2022-07-29T11:56:25.840Z,100502.33
2022-07-29T11:59:08.445Z,100499.89
2022-07-29T12:04:53.938Z,100503.07
2022-07-29T12:07:02.432Z,100503.75
2022-07-29T12:07:33.691Z,100497.43
2022-07-29T12:10:11.604Z,100495.15
2022-07-29T12:12:56.143Z,100496.78
2022-07-29T12:15:45.644Z,100494.98
2022-07-29T12:18:23.969Z,100495.56
2022-07-29T12:21:05.229Z,100492.27
2022-07-29T12:23:37.864Z,100491.67
2022-07-29T12:26:11.074Z,100487.89
2022-07-29T12:28:58.150Z,100490.48
2022-07-29T12:31:43.898Z,100483.67
2022-07-29T12:34:18.310Z,100487.86
2022-07-29T12:36:51.538Z,100482.73
2022-07-29T12:39:24.243Z,100480.92
2022-07-29T12:42:03.836Z,100473.09
2022-07-29T12:44:51.105Z,100475.52
2022-07-29T12:47:26.822Z,100476.06
2022-07-29T12:50:15.595Z,100471.81
2022-07-29T12:52:48.989Z,100474.11
2022-07-29T12:55:44.784Z,100482.79
2022-07-29T12:58:27.911Z,100480.73
2022-07-29T13:01:17.285Z,100479.64
2022-07-29T13:03:57.510Z,100477.66
2022-07-29T13:06:38.321Z,100477.10
2022-07-29T13:09:24.293Z,100468.53
2022-07-29T13:11:57.113Z,100468.06
2022-07-29T13:14:39.165Z,100468.46
2022-07-29T13:17:13.297Z,100462.94
2022-07-29T13:19:47.417Z,100465.48
2022-07-29T13:22:22.139Z,100463.34
2022-07-29T13:24:56.122Z,100457.74
2022-07-29T13:27:30.823Z,100456.40
2022-07-29T13:30:04.955Z,100452.50
2022-07-29T13:32:38.876Z,100451.41
2022-07-29T13:35:12.906Z,100451.61
2022-07-29T13:37:45.302Z,100452.16
2022-07-29T13:40:17.722Z,100449.71
2022-07-29T13:42:50.052Z,100445.49
2022-07-29T13:45:22.260Z,100444.78
2022-07-29T13:47:54.492Z,100444.09
2022-07-29T13:50:26.890Z,100447.81
2022-07-29T13:52:59.250Z,100445.03
2022-07-29T13:55:31.872Z,100443.01
2022-07-29T13:58:04.926Z,100445.02
2022-07-29T14:00:37.400Z,100440.50
2022-07-29T14:03:09.712Z,100438.69
2022-07-29T14:05:42.098Z,100433.13
2022-07-29T14:08:14.596Z,100434.64
2022-07-29T14:10:49.861Z,100434.73
2022-07-29T14:13:25.148Z,100428.44
2022-07-29T14:15:58.567Z,100424.21
2022-07-29T14:18:31.282Z,100425.79
2022-07-29T14:21:04.055Z,100424.73
2022-07-29T14:23:36.585Z,100422.34
2022-07-29T14:26:13.147Z,100420.25
2022-07-29T14:28:48.224Z,100419.14
2022-07-29T14:31:20.545Z,100413.09
2022-07-29T14:33:53.153Z,100405.61
2022-07-29T14:36:26.012Z,100404.08
2022-07-29T14:38:58.488Z,100413.00
2022-07-29T14:41:30.971Z,100409.05
2022-07-29T14:44:03.489Z,100409.20
2022-07-29T14:46:35.678Z,100407.89
2022-07-29T14:49:08.128Z,100404.61
2022-07-29T14:51:41.956Z,100406.55
2022-07-29T14:54:15.502Z,100404.91
2022-07-29T14:56:47.881Z,100402.11
2022-07-29T14:59:20.473Z,100401.27
2022-07-29T15:01:52.978Z,100395.58
2022-07-29T15:04:25.897Z,100394.92
2022-07-29T15:06:59.039Z,100392.29
2022-07-29T15:09:31.432Z,100389.20
2022-07-29T15:12:04.977Z,100389.89
2022-07-29T15:14:37.305Z,100387.08
2022-07-29T15:17:09.864Z,100382.41
2022-07-29T15:19:45.019Z,100378.68
2022-07-29T15:22:17.410Z,100370.46
2022-07-29T15:24:49.918Z,100371.46
2022-07-29T15:27:21.984Z,100366.53
2022-07-29T15:29:54.333Z,100374.31
2022-07-29T15:32:26.545Z,100375.02
2022-07-29T15:34:58.979Z,100365.60
2022-07-29T15:37:48.673Z,100362.82
2022-07-29T15:40:21.786Z,100362.45
2022-07-29T15:42:54.161Z,100358.98
2022-07-29T15:45:26.855Z,100360.80
2022-07-29T15:48:05.033Z,100360.02
2022-07-29T15:50:37.434Z,100357.38
2022-07-29T15:53:09.538Z,100359.14
2022-07-29T15:55:42.124Z,100359.83
2022-07-29T15:58:16.874Z,100353.88
2022-07-29T16:00:49.441Z,100354.52
2022-07-29T16:03:22.951Z,100353.59
2022-07-29T16:05:55.388Z,100352.00
2022-07-29T16:08:27.640Z,100356.95
2022-07-29T16:11:00.160Z,100354.72
2022-07-29T16:13:32.650Z,100357.16
2022-07-29T16:16:05.170Z,100358.56
2022-07-29T16:18:37.366Z,100354.98
2022-07-29T16:21:09.828Z,100348.65
2022-07-29T16:23:42.108Z,100347.09
2022-07-29T16:26:14.658Z,100344.41
2022-07-29T16:28:46.999Z,100342.27
2022-07-29T16:31:22.626Z,100342.65
2022-07-29T16:33:56.067Z,100337.91
2022-07-29T16:36:29.178Z,100340.69
2022-07-29T16:39:01.386Z,100344.69
2022-07-29T16:41:34.588Z,100340.70
2022-07-29T16:44:07.233Z,100340.14
2022-07-29T16:46:41.464Z,100340.15
2022-07-29T16:49:19.062Z,100347.86
2022-07-29T16:51:51.969Z,100351.88
2022-07-29T16:54:24.397Z,100358.27
2022-07-29T16:56:57.722Z,100364.20
2022-07-29T16:59:30.009Z,100370.11
2022-07-29T17:02:02.973Z,100369.08
2022-07-29T17:04:35.275Z,100372.52
2022-07-29T17:07:07.784Z,100370.61
2022-07-29T17:09:40.164Z,100364.19
2022-07-29T17:12:13.039Z,100369.61
2022-07-29T17:14:45.273Z,100366.33
2022-07-29T17:17:20.713Z,100366.58
2022-07-29T17:20:12.063Z,100373.58
2022-07-29T17:22:49.749Z,100369.20
2022-07-29T17:25:22.004Z,100363.40
2022-07-29T17:28:00.506Z,100362.21
2022-07-29T17:30:33.320Z,100361.23
2022-07-29T17:33:08.738Z,100369.08
2022-07-29T17:36:09.620Z,100363.52
2022-07-29T17:38:42.117Z,100366.02
2022-07-29T17:41:14.387Z,100365.14
2022-07-29T17:43:46.690Z,100373.24
2022-07-29T17:46:20.390Z,100368.15
2022-07-29T17:48:52.628Z,100372.16
2022-07-29T17:51:25.786Z,100366.04
2022-07-29T17:53:58.582Z,100367.41
2022-07-29T17:56:30.975Z,100364.03
2022-07-29T17:59:06.926Z,100367.54
2022-07-29T18:01:41.478Z,100366.15
2022-07-29T18:04:15.775Z,100367.55
2022-07-29T18:06:48.080Z,100371.38
2022-07-29T18:09:20.550Z,100371.02
2022-07-29T18:11:53.207Z,100365.23
2022-07-29T18:14:25.678Z,100366.61
2022-07-29T18:16:58.176Z,100371.70
2022-07-29T18:19:32.113Z,100373.14
2022-07-29T18:22:05.076Z,100374.82
2022-07-29T18:24:38.625Z,100383.00
2022-07-29T18:27:13.146Z,100380.73
2022-07-29T18:29:46.178Z,100382.81
2022-07-29T18:32:29.029Z,100382.09
2022-07-29T18:35:03.064Z,100382.29
2022-07-29T18:38:01.470Z,100385.64
2022-07-29T18:40:29.579Z,100386.83
2022-07-29T18:43:02.175Z,100388.95
2022-07-29T18:45:34.449Z,100388.34
2022-07-29T18:48:11.856Z,100383.02
2022-07-29T18:50:45.479Z,100378.01
2022-07-29T18:53:18.063Z,100377.98
2022-07-29T18:55:50.204Z,100381.34
2022-07-29T18:58:22.487Z,100385.03
2022-07-29T19:00:54.846Z,100386.11
2022-07-29T19:03:27.472Z,100386.62
2022-07-29T19:05:59.785Z,100387.27
2022-07-29T19:08:32.326Z,100388.81
2022-07-29T19:11:04.724Z,100389.77
2022-07-29T19:13:37.752Z,100392.15
2022-07-29T19:16:13.699Z,100397.63
2022-07-29T19:18:47.542Z,100398.92
2022-07-29T19:21:20.707Z,100402.74
2022-07-29T19:24:06.025Z,100403.29
2022-07-29T19:26:47.468Z,100401.50
2022-07-29T19:29:19.865Z,100404.91
2022-07-29T19:31:52.155Z,100405.02
2022-07-29T19:34:24.448Z,100399.52
2022-07-29T19:36:57.246Z,100398.23
2022-07-29T19:39:31.798Z,100398.80
2022-07-29T19:42:08.671Z,100399.83
2022-07-29T19:44:40.827Z,100395.75
2022-07-29T19:47:17.346Z,100394.56
2022-07-29T19:49:48.225Z,100396.98
2022-07-29T19:52:20.507Z,100394.73
2022-07-29T19:54:53.829Z,100395.69
2022-07-29T19:57:26.286Z,100393.20
2022-07-29T19:59:58.692Z,100397.23
2022-07-29T20:02:31.078Z,100401.31
2022-07-29T20:05:04.371Z,100406.97
2022-07-29T20:07:36.859Z,100409.29
2022-07-29T20:10:11.983Z,100409.48
2022-07-29T20:12:44.305Z,100410.92
2022-07-29T20:15:19.275Z,100413.39
2022-07-29T20:17:55.314Z,100414.29
2022-07-29T20:20:30.743Z,100409.04
2022-07-29T20:23:03.891Z,100408.92
2022-07-29T20:25:36.011Z,100405.05
2022-07-29T20:28:08.712Z,100403.09
2022-07-29T20:30:41.801Z,100400.59
2022-07-29T20:33:14.368Z,100402.94
2022-07-29T20:35:47.445Z,100402.08
2022-07-29T20:38:19.904Z,100397.62
2022-07-29T20:40:54.162Z,100403.73
2022-07-29T20:43:26.805Z,100401.98
2022-07-29T20:45:59.577Z,100402.26
2022-07-29T20:48:31.702Z,100398.96
2022-07-29T20:51:04.053Z,100398.34
2022-07-29T20:53:36.456Z,100398.16
2022-07-29T20:56:09.290Z,100396.70
2022-07-29T20:58:42.455Z,100390.70
2022-07-29T21:01:15.181Z,100386.70
2022-07-29T21:03:47.616Z,100388.48
2022-07-29T21:06:19.874Z,100389.64
2022-07-29T21:08:52.037Z,100386.60
2022-07-29T21:11:44.227Z,100387.12
2022-07-29T21:14:28.010Z,100387.15
2022-07-29T21:17:00.353Z,100385.59
2022-07-29T21:19:32.844Z,100381.91
2022-07-29T21:22:05.519Z,100384.70
2022-07-29T21:24:37.925Z,100383.23
2022-07-29T21:27:28.394Z,100380.79
2022-07-29T21:30:00.973Z,100380.39
2022-07-29T21:32:33.451Z,100382.96
2022-07-29T21:35:14.551Z,100381.80
2022-07-29T21:37:58.272Z,100383.27
2022-07-29T21:40:30.757Z,100377.96
2022-07-29T21:43:03.340Z,100379.75
2022-07-29T21:45:35.525Z,100381.70
2022-07-29T21:48:08.048Z,100379.24
2022-07-29T21:50:40.243Z,100373.54
2022-07-29T21:53:13.817Z,100373.21
2022-07-29T21:55:48.606Z,100371.53
2022-07-29T21:58:23.803Z,100373.56
2022-07-29T22:00:56.150Z,100376.59
2022-07-29T22:03:28.703Z,100376.94
2022-07-29T22:06:00.933Z,100370.91
2022-07-29T22:08:33.344Z,100372.41
2022-07-29T22:11:06.074Z,100369.92
2022-07-29T22:13:38.890Z,100369.83
2022-07-29T22:16:15.189Z,100365.55
2022-07-29T22:18:48.451Z,100366.87
2022-07-29T22:21:21.234Z,100364.40
2022-07-29T22:23:53.509Z,100363.45
2022-07-29T22:26:26.015Z,100363.11
2022-07-29T22:28:58.574Z,100364.29
2022-07-29T22:31:31.085Z,100361.21
2022-07-29T22:34:04.551Z,100358.99
2022-07-29T22:36:36.653Z,100358.20
2022-07-29T22:39:09.337Z,100353.54
2022-07-29T22:41:41.712Z,100349.61
2022-07-29T22:44:14.386Z,100351.11
2022-07-29T22:46:46.693Z,100351.56
2022-07-29T22:49:19.637Z,100354.81
2022-07-29T22:51:52.081Z,100353.48
2022-07-29T22:54:24.394Z,100349.19
2022-07-29T22:56:56.825Z,100347.09
2022-07-29T22:59:29.859Z,100347.52
2022-07-29T23:02:02.045Z,100347.27
2022-07-29T23:04:34.203Z,100348.70
2022-07-29T23:07:06.418Z,100351.21
2022-07-29T23:09:38.670Z,100349.64
2022-07-29T23:12:12.783Z,100346.20
2022-07-29T23:14:45.232Z,100345.07
2022-07-29T23:17:17.616Z,100343.40
2022-07-29T23:19:50.300Z,100343.75
2022-07-29T23:22:22.481Z,100338.23
2022-07-29T23:24:55.194Z,100340.45
2022-07-29T23:27:27.473Z,100345.45
2022-07-29T23:29:59.872Z,100349.52
2022-07-29T23:32:32.547Z,100350.70
2022-07-29T23:35:07.019Z,100346.95
2022-07-29T23:37:39.555Z,100341.97
2022-07-29T23:40:14.493Z,100338.20
2022-07-29T23:42:47.289Z,100339.73
2022-07-29T23:45:21.332Z,100340.91
2022-07-29T23:47:53.728Z,100340.95
2022-07-29T23:50:26.473Z,100334.86
2022-07-29T23:52:58.804Z,100331.39
2022-07-29T23:55:36.480Z,100326.63
2022-07-29T23:58:11.274Z,100327.25
